createdAt,value
2023-04-26T00:01:50.201Z,13.24
2023-04-26T00:04:35.594Z,13.40
2023-04-26T00:07:20.835Z,12.97
2023-04-26T00:10:06.312Z,12.73
2023-04-26T00:12:51.722Z,13.47
2023-04-26T00:15:37.080Z,13.25
2023-04-26T00:18:22.332Z,13.13
2023-04-26T00:21:07.584Z,12.99
2023-04-26T00:23:52.962Z,13.00
2023-04-26T00:26:38.338Z,12.82
2023-04-26T00:29:23.700Z,13.36
2023-04-26T00:32:09.193Z,12.64
2023-04-26T00:34:54.163Z,12.53
2023-04-26T00:37:39.416Z,12.90
2023-04-26T00:40:24.732Z,12.12
2023-04-26T00:43:10.116Z,13.07
2023-04-26T00:45:55.492Z,12.42
2023-04-26T00:48:41.108Z,12.87
2023-04-26T00:51:26.425Z,12.34
2023-04-26T00:54:12.013Z,12.54
2023-04-26T00:56:57.558Z,11.81
2023-04-26T00:59:42.790Z,12.20
2023-04-26T01:02:29.523Z,11.98
2023-04-26T01:05:14.561Z,11.95
2023-04-26T01:08:00.001Z,11.68
2023-04-26T01:10:45.509Z,11.87
2023-04-26T01:13:31.980Z,11.87
2023-04-26T01:16:19.122Z,11.65
2023-04-26T01:19:04.291Z,11.99
2023-04-26T01:21:49.755Z,11.85
2023-04-26T01:24:35.211Z,11.68
2023-04-26T01:27:20.837Z,11.94
2023-04-26T01:30:06.185Z,11.85
2023-04-26T01:32:51.513Z,11.52
2023-04-26T01:35:36.908Z,11.40
2023-04-26T01:38:22.032Z,11.50
2023-04-26T01:41:07.548Z,11.51
2023-04-26T01:43:52.696Z,11.43
2023-04-26T01:46:37.992Z,11.17
2023-04-26T01:49:23.411Z,11.38
2023-04-26T01:52:08.861Z,11.11
2023-04-26T01:54:54.244Z,11.06
2023-04-26T01:57:39.555Z,10.94
2023-04-26T02:00:24.898Z,10.82
2023-04-26T02:03:10.413Z,11.08
2023-04-26T02:05:55.610Z,10.93
2023-04-26T02:08:40.850Z,10.87
2023-04-26T02:11:26.388Z,10.87
2023-04-26T02:14:11.667Z,10.82
2023-04-26T02:16:56.895Z,10.51
2023-04-26T02:19:42.240Z,10.63
2023-04-26T02:22:27.424Z,10.55
2023-04-26T02:25:12.850Z,10.47
2023-04-26T02:27:58.333Z,10.56
2023-04-26T02:30:43.485Z,10.07
2023-04-26T02:33:28.826Z,10.50
2023-04-26T02:36:14.262Z,10.47
2023-04-26T02:38:59.363Z,10.06
2023-04-26T02:41:44.869Z,10.42
2023-04-26T02:44:30.146Z,10.01
2023-04-26T02:47:15.579Z,10.32
2023-04-26T02:50:00.946Z,10.03
2023-04-26T02:52:46.065Z,9.87
2023-04-26T02:55:31.311Z,10.02
2023-04-26T02:58:16.502Z,10.16
2023-04-26T03:01:01.986Z,9.79
2023-04-26T03:03:47.490Z,9.64
2023-04-26T03:06:32.831Z,9.75
2023-04-26T03:09:18.235Z,9.80
2023-04-26T03:12:03.669Z,9.98
2023-04-26T03:14:48.910Z,9.64
2023-04-26T03:17:34.400Z,9.95
2023-04-26T03:20:19.676Z,9.40
2023-04-26T03:23:05.054Z,9.32
2023-04-26T03:25:50.263Z,9.24
2023-04-26T03:28:35.662Z,9.51
2023-04-26T03:31:20.998Z,9.39
2023-04-26T03:34:06.437Z,9.61
2023-04-26T03:36:51.715Z,9.25
2023-04-26T03:39:36.888Z,9.21
2023-04-26T03:42:21.782Z,9.23
2023-04-26T03:45:07.084Z,9.09
2023-04-26T03:47:52.694Z,8.68
2023-04-26T03:50:37.985Z,8.76
2023-04-26T03:53:23.437Z,8.77
2023-04-26T03:56:08.512Z,9.08
2023-04-26T03:58:54.097Z,8.73
2023-04-26T04:01:39.323Z,8.77
2023-04-26T04:04:24.725Z,8.84
2023-04-26T04:07:09.944Z,8.71
2023-04-26T04:09:55.535Z,8.71
2023-04-26T04:12:40.819Z,8.83
2023-04-26T04:15:26.284Z,8.43
2023-04-26T04:18:11.761Z,8.71
2023-04-26T04:20:56.790Z,8.68
2023-04-26T04:23:42.139Z,8.67
2023-04-26T04:26:27.511Z,8.46
2023-04-26T04:29:12.936Z,8.43
2023-04-26T04:31:58.353Z,8.23
2023-04-26T04:34:43.640Z,8.42
2023-04-26T04:37:28.974Z,8.29
2023-04-26T04:40:14.510Z,8.23
2023-04-26T04:42:59.947Z,8.06
2023-04-26T04:45:45.165Z,7.73
2023-04-26T04:48:30.311Z,8.10
2023-04-26T04:51:15.449Z,8.04
2023-04-26T04:54:00.710Z,7.64
2023-04-26T04:56:45.955Z,7.69
2023-04-26T04:59:31.572Z,7.54
2023-04-26T05:02:17.274Z,7.86
2023-04-26T05:05:02.416Z,7.99
2023-04-26T05:07:47.622Z,7.71
2023-04-26T05:10:32.871Z,7.69
2023-04-26T05:13:17.969Z,7.76
2023-04-26T05:16:03.446Z,7.62
2023-04-26T05:18:48.626Z,7.76
2023-04-26T05:21:33.633Z,7.86
2023-04-26T05:24:18.992Z,7.96
2023-04-26T05:27:04.317Z,7.94
2023-04-26T05:29:49.417Z,7.63
2023-04-26T05:32:34.967Z,7.58
2023-04-26T05:35:20.429Z,7.63
2023-04-26T05:38:05.765Z,7.58
2023-04-26T05:40:51.147Z,7.13
2023-04-26T05:43:36.507Z,7.31
2023-04-26T05:46:21.891Z,7.59
2023-04-26T05:49:07.133Z,7.44
2023-04-26T05:51:52.388Z,7.32
2023-04-26T05:54:37.556Z,7.39
2023-04-26T05:57:22.771Z,7.05
2023-04-26T06:00:08.091Z,6.71
2023-04-26T06:02:53.634Z,6.79
2023-04-26T06:05:39.032Z,6.97
2023-04-26T06:08:24.561Z,6.54
2023-04-26T06:11:09.829Z,6.88
2023-04-26T06:13:55.466Z,6.67
2023-04-26T06:16:42.362Z,6.62
2023-04-26T06:19:28.660Z,6.54
2023-04-26T06:22:13.950Z,6.66
2023-04-26T06:24:59.398Z,7.01
2023-04-26T06:27:44.568Z,6.61
2023-04-26T06:30:29.923Z,6.70
2023-04-26T06:33:15.176Z,6.41
2023-04-26T06:36:00.395Z,6.58
2023-04-26T06:38:45.698Z,6.31
2023-04-26T06:41:30.991Z,6.38
2023-04-26T06:44:16.282Z,6.23
2023-04-26T06:47:02.753Z,6.18
2023-04-26T06:49:48.099Z,6.28
2023-04-26T06:52:33.456Z,6.22
2023-04-26T06:55:18.804Z,6.02
2023-04-26T06:58:04.121Z,6.61
2023-04-26T07:00:49.513Z,6.19
2023-04-26T07:03:34.974Z,6.32
2023-04-26T07:06:20.104Z,6.35
2023-04-26T07:09:05.585Z,5.89
2023-04-26T07:11:50.846Z,5.91
2023-04-26T07:14:38.542Z,5.78
2023-04-26T07:17:24.869Z,5.86
2023-04-26T07:20:10.129Z,5.78
2023-04-26T07:22:55.775Z,6.05
2023-04-26T07:25:41.168Z,5.92
2023-04-26T07:28:26.653Z,5.95
2023-04-26T07:31:12.051Z,5.89
2023-04-26T07:33:57.460Z,5.91
2023-04-26T07:36:42.915Z,5.87
2023-04-26T07:39:28.094Z,5.68
2023-04-26T07:42:14.847Z,5.68
2023-04-26T07:45:00.409Z,5.78
2023-04-26T07:47:45.905Z,5.93
2023-04-26T07:50:31.226Z,5.36
2023-04-26T07:53:16.577Z,5.66
2023-04-26T07:56:01.996Z,5.23
2023-04-26T07:58:47.342Z,5.33
2023-04-26T08:01:32.760Z,5.58
2023-04-26T08:04:18.318Z,4.85
2023-04-26T08:07:03.602Z,5.02
2023-04-26T08:09:48.747Z,5.32
2023-04-26T08:12:34.125Z,5.21
2023-04-26T08:15:19.342Z,4.86
2023-04-26T08:18:07.469Z,4.85
2023-04-26T08:20:52.425Z,4.72
2023-04-26T08:23:37.804Z,4.73
2023-04-26T08:26:23.145Z,4.74
2023-04-26T08:29:08.452Z,4.66
2023-04-26T08:31:53.751Z,4.43
2023-04-26T08:34:39.151Z,4.62
2023-04-26T08:37:24.466Z,4.48
2023-04-26T08:40:09.776Z,4.31
2023-04-26T08:42:55.069Z,4.33
2023-04-26T08:45:40.545Z,4.51
2023-04-26T08:48:26.072Z,4.58
2023-04-26T08:51:11.582Z,4.39
2023-04-26T08:53:56.682Z,4.15
2023-04-26T08:56:42.281Z,4.27
2023-04-26T08:59:27.548Z,4.42
2023-04-26T09:02:12.945Z,4.57
2023-04-26T09:04:58.277Z,4.24
2023-04-26T09:07:43.497Z,3.91
2023-04-26T09:10:29.039Z,4.32
2023-04-26T09:13:14.137Z,4.31
2023-04-26T09:15:59.876Z,4.40
2023-04-26T09:18:45.861Z,4.06
2023-04-26T09:21:31.244Z,3.97
2023-04-26T09:24:16.694Z,4.14
2023-04-26T09:27:01.958Z,4.05
2023-04-26T09:29:47.235Z,4.05
2023-04-26T09:32:32.703Z,4.01
2023-04-26T09:35:17.870Z,4.14
2023-04-26T09:38:07.913Z,3.79
2023-04-26T09:40:54.116Z,3.81
2023-04-26T09:43:39.390Z,3.85
2023-04-26T09:46:24.887Z,3.95
2023-04-26T09:49:10.084Z,3.86
2023-04-26T09:51:55.442Z,4.23
2023-04-26T09:54:40.735Z,3.75
2023-04-26T09:57:26.022Z,3.96
2023-04-26T10:00:11.522Z,3.93
2023-04-26T10:02:56.866Z,4.16
2023-04-26T10:05:41.987Z,3.76
2023-04-26T10:08:27.995Z,4.08
2023-04-26T10:11:13.300Z,3.67
2023-04-26T10:13:58.709Z,3.81
2023-04-26T10:16:43.994Z,4.20
2023-04-26T10:19:29.378Z,4.04
2023-04-26T10:22:14.763Z,3.92
2023-04-26T10:25:00.261Z,3.89
2023-04-26T10:27:45.725Z,3.80
2023-04-26T10:30:31.108Z,3.93
2023-04-26T10:33:16.735Z,20.45
2023-04-26T10:36:01.910Z,55.35
2023-04-26T10:38:47.277Z,61.91
2023-04-26T10:41:32.747Z,71.42
2023-04-26T10:44:18.042Z,69.20
2023-04-26T10:47:03.590Z,67.48
2023-04-26T10:49:48.930Z,64.49
2023-04-26T10:52:34.307Z,58.70
2023-04-26T10:55:19.577Z,59.09
2023-04-26T10:58:04.955Z,61.12
2023-04-26T11:00:50.484Z,55.15
2023-04-26T11:03:36.043Z,49.69
2023-04-26T11:06:21.784Z,43.97
2023-04-26T11:09:06.988Z,36.87
2023-04-26T11:11:53.039Z,26.35
2023-04-26T11:14:38.339Z,21.54
2023-04-26T11:17:23.792Z,22.49
2023-04-26T11:20:09.277Z,17.90
2023-04-26T11:22:54.594Z,14.75
2023-04-26T11:25:39.876Z,12.96
2023-04-26T11:28:27.855Z,10.98
2023-04-26T11:31:12.826Z,8.78
2023-04-26T11:33:58.392Z,7.63
2023-04-26T11:36:43.712Z,6.58
2023-04-26T11:39:29.141Z,6.98
2023-04-26T11:42:14.556Z,6.57
2023-04-26T11:44:59.873Z,6.38
2023-04-26T11:47:45.413Z,6.02
2023-04-26T11:50:30.722Z,5.65
2023-04-26T11:53:15.783Z,5.10
2023-04-26T11:56:01.196Z,4.83
2023-04-26T11:58:46.547Z,4.25
2023-04-26T12:01:32.032Z,3.94
2023-04-26T12:04:17.626Z,3.68
2023-04-26T12:07:02.932Z,3.55
2023-04-26T12:09:48.258Z,3.67
2023-04-26T12:12:33.716Z,3.49
2023-04-26T12:15:19.214Z,3.07
2023-04-26T12:18:04.494Z,3.21
2023-04-26T12:20:49.845Z,2.78
2023-04-26T12:23:35.228Z,2.52
2023-04-26T12:26:23.630Z,2.49
2023-04-26T12:29:09.037Z,2.29
2023-04-26T12:31:54.467Z,2.19
2023-04-26T12:34:40.015Z,2.28
2023-04-26T12:37:25.477Z,2.50
2023-04-26T12:40:10.892Z,2.13
2023-04-26T12:42:56.215Z,2.03
2023-04-26T12:45:41.550Z,2.28
2023-04-26T12:48:26.914Z,2.44
2023-04-26T12:51:12.381Z,2.17
2023-04-26T12:53:57.906Z,2.32
2023-04-26T12:56:43.456Z,2.14
2023-04-26T12:59:28.874Z,2.10
2023-04-26T13:02:14.159Z,1.99
2023-04-26T13:04:59.537Z,2.14
2023-04-26T13:07:44.812Z,2.25
2023-04-26T13:10:30.259Z,2.18
2023-04-26T13:13:15.676Z,2.01
2023-04-26T13:16:01.232Z,2.18
2023-04-26T13:18:46.450Z,2.15
2023-04-26T13:21:31.903Z,2.15
2023-04-26T13:24:17.277Z,2.06
2023-04-26T13:27:02.644Z,2.00
2023-04-26T13:29:48.100Z,2.13
2023-04-26T13:32:33.138Z,1.96
2023-04-26T13:35:18.556Z,2.08
2023-04-26T13:38:03.862Z,2.10
2023-04-26T13:40:49.022Z,2.08
2023-04-26T13:43:34.208Z,1.95
2023-04-26T13:46:19.478Z,2.10
2023-04-26T13:49:04.853Z,2.20
2023-04-26T13:51:50.192Z,1.85
2023-04-26T13:54:35.496Z,2.09
2023-04-26T13:57:20.740Z,2.12
2023-04-26T14:00:05.977Z,2.19
2023-04-26T14:02:51.368Z,2.12
2023-04-26T14:05:36.465Z,2.14
2023-04-26T14:08:21.769Z,2.07
2023-04-26T14:11:07.083Z,2.16
2023-04-26T14:13:54.394Z,1.99
2023-04-26T14:16:39.922Z,2.06
2023-04-26T14:19:25.208Z,1.79
2023-04-26T14:22:10.660Z,2.05
2023-04-26T14:24:55.782Z,1.90
2023-04-26T14:27:40.894Z,2.25
2023-04-26T14:30:26.223Z,2.00
2023-04-26T14:33:11.514Z,2.01
2023-04-26T14:35:56.746Z,2.14
2023-04-26T14:38:42.010Z,2.08
2023-04-26T14:41:27.220Z,2.12
2023-04-26T14:44:12.568Z,1.95
2023-04-26T14:46:57.770Z,2.00
2023-04-26T14:49:42.925Z,2.20
2023-04-26T14:52:28.195Z,2.16
2023-04-26T14:55:13.762Z,2.01
2023-04-26T14:57:59.120Z,1.89
2023-04-26T15:00:44.334Z,1.98
2023-04-26T15:03:29.897Z,2.09
2023-04-26T15:06:15.294Z,1.97
2023-04-26T15:09:00.718Z,2.09
2023-04-26T15:11:46.052Z,1.97
2023-04-26T15:14:34.056Z,2.14
2023-04-26T15:17:19.258Z,2.18
2023-04-26T15:20:04.556Z,2.13
2023-04-26T15:22:49.960Z,2.17
2023-04-26T15:25:35.444Z,2.18
2023-04-26T15:28:20.904Z,2.31
2023-04-26T15:31:06.359Z,2.23
2023-04-26T15:33:51.532Z,2.30
2023-04-26T15:36:36.762Z,2.31
2023-04-26T15:39:21.899Z,2.17
2023-04-26T15:42:07.325Z,2.35
2023-04-26T15:44:52.461Z,2.33
2023-04-26T15:47:38.152Z,2.24
2023-04-26T15:50:23.596Z,2.30
2023-04-26T15:53:08.927Z,2.36
2023-04-26T15:55:54.388Z,2.36
2023-04-26T15:58:41.063Z,2.42
2023-04-26T16:01:27.128Z,2.45
2023-04-26T16:04:12.614Z,2.30
2023-04-26T16:06:57.755Z,2.30
2023-04-26T16:09:43.235Z,2.29
2023-04-26T16:12:28.676Z,2.42
2023-04-26T16:15:13.888Z,2.27
2023-04-26T16:17:59.257Z,2.41
2023-04-26T16:20:44.187Z,2.26
2023-04-26T16:23:29.742Z,2.42
2023-04-26T16:26:14.999Z,2.19
2023-04-26T16:29:00.899Z,2.18
2023-04-26T16:31:46.793Z,2.20
2023-04-26T16:34:32.088Z,2.40
2023-04-26T16:37:17.410Z,2.16
2023-04-26T16:40:02.603Z,2.18
2023-04-26T16:42:48.022Z,2.30
2023-04-26T16:45:33.280Z,2.29
2023-04-26T16:48:18.650Z,2.13
2023-04-26T16:51:06.966Z,2.44
2023-04-26T16:53:52.563Z,2.26
2023-04-26T16:56:37.817Z,2.38
2023-04-26T16:59:23.305Z,2.42
2023-04-26T17:02:08.663Z,2.46
2023-04-26T17:04:57.019Z,2.31
2023-04-26T17:07:42.665Z,2.42
2023-04-26T17:10:28.045Z,2.52
2023-04-26T17:13:13.445Z,4.61
2023-04-26T17:15:58.879Z,4.90
2023-04-26T17:18:44.257Z,5.46
2023-04-26T17:21:29.473Z,5.93
2023-04-26T17:24:16.049Z,6.53
2023-04-26T17:27:01.964Z,6.20
2023-04-26T17:29:47.233Z,6.84
2023-04-26T17:32:32.831Z,6.70
2023-04-26T17:35:18.309Z,7.15
2023-04-26T17:38:03.566Z,7.87
2023-04-26T17:40:48.960Z,8.09
2023-04-26T17:43:34.375Z,8.34
2023-04-26T17:46:19.996Z,8.28
2023-04-26T17:49:05.420Z,7.48
2023-04-26T17:51:50.532Z,7.78
2023-04-26T17:54:35.569Z,7.48
2023-04-26T17:57:20.915Z,6.96
2023-04-26T18:00:06.202Z,6.94
2023-04-26T18:02:51.509Z,6.89
2023-04-26T18:05:36.750Z,6.86
2023-04-26T18:08:22.039Z,6.54
2023-04-26T18:11:07.091Z,6.50
2023-04-26T18:13:52.481Z,6.40
2023-04-26T18:16:37.960Z,6.05
2023-04-26T18:19:23.109Z,5.86
2023-04-26T18:22:08.412Z,6.15
2023-04-26T18:24:53.913Z,5.68
2023-04-26T18:27:39.331Z,5.63
2023-04-26T18:30:24.755Z,5.72
2023-04-26T18:33:10.197Z,5.56
2023-04-26T18:35:55.785Z,5.22
2023-04-26T18:38:41.109Z,4.96
2023-04-26T18:41:26.396Z,4.90
2023-04-26T18:44:11.731Z,4.60
2023-04-26T18:46:59.452Z,4.90
2023-04-26T18:49:44.388Z,4.83
2023-04-26T18:52:29.681Z,4.61
2023-04-26T18:55:15.063Z,4.71
2023-04-26T18:58:00.944Z,4.67
2023-04-26T19:00:46.243Z,4.31
2023-04-26T19:03:31.485Z,4.41
2023-04-26T19:06:16.716Z,4.39
2023-04-26T19:09:02.064Z,4.66
2023-04-26T19:11:47.613Z,4.53
2023-04-26T19:14:33.128Z,4.64
2023-04-26T19:17:18.494Z,4.71
2023-04-26T19:20:03.660Z,8.17
2023-04-26T19:22:48.957Z,10.93
2023-04-26T19:25:34.332Z,13.49
2023-04-26T19:28:19.696Z,14.46
2023-04-26T19:31:05.042Z,14.93
2023-04-26T19:33:50.300Z,15.12
2023-04-26T19:36:35.727Z,17.33
2023-04-26T19:39:23.352Z,16.82
2023-04-26T19:42:09.186Z,16.45
2023-04-26T19:44:54.457Z,15.51
2023-04-26T19:47:39.779Z,15.70
2023-04-26T19:50:24.965Z,15.96
2023-04-26T19:53:10.467Z,14.78
2023-04-26T19:55:55.834Z,14.32
2023-04-26T19:58:41.241Z,14.03
2023-04-26T20:01:26.462Z,13.48
2023-04-26T20:04:11.618Z,13.38
2023-04-26T20:06:56.939Z,13.00
2023-04-26T20:09:42.177Z,12.09
2023-04-26T20:12:27.567Z,12.45
2023-04-26T20:15:13.102Z,12.08
2023-04-26T20:17:58.579Z,11.98
2023-04-26T20:20:43.912Z,12.02
2023-04-26T20:23:29.176Z,11.67
2023-04-26T20:26:14.667Z,11.75
2023-04-26T20:28:59.837Z,11.47
2023-04-26T20:31:45.447Z,11.53
2023-04-26T20:34:30.709Z,11.41
2023-04-26T20:37:15.879Z,11.51
2023-04-26T20:40:01.218Z,11.26
2023-04-26T20:42:46.654Z,10.91
2023-04-26T20:45:32.045Z,10.39
2023-04-26T20:48:17.255Z,10.78
2023-04-26T20:51:02.712Z,10.47
2023-04-26T20:53:47.973Z,11.02
2023-04-26T20:56:33.336Z,10.66
2023-04-26T20:59:18.723Z,10.53
2023-04-26T21:02:04.184Z,10.27
2023-04-26T21:04:49.642Z,10.34
2023-04-26T21:07:35.124Z,10.04
2023-04-26T21:10:20.391Z,10.04
2023-04-26T21:13:05.665Z,9.94
2023-04-26T21:15:50.967Z,9.86
2023-04-26T21:18:36.311Z,9.85
2023-04-26T21:21:25.027Z,9.58
2023-04-26T21:24:11.209Z,10.09
2023-04-26T21:26:56.921Z,9.71
2023-04-26T21:29:42.385Z,9.96
2023-04-26T21:32:27.770Z,9.77
2023-04-26T21:35:13.021Z,9.61
2023-04-26T21:37:58.276Z,9.48
2023-04-26T21:40:43.758Z,9.63
2023-04-26T21:43:29.216Z,9.38
2023-04-26T21:46:14.456Z,9.26
2023-04-26T21:48:59.799Z,9.37
2023-04-26T21:51:45.088Z,8.95
2023-04-26T21:54:30.420Z,8.96
2023-04-26T21:57:15.515Z,9.19
2023-04-26T22:00:00.923Z,9.05
2023-04-26T22:02:46.501Z,8.75
2023-04-26T22:05:31.566Z,8.88
2023-04-26T22:08:17.122Z,8.81
2023-04-26T22:11:02.466Z,8.21
2023-04-26T22:13:47.938Z,8.88
2023-04-26T22:16:33.031Z,8.52
2023-04-26T22:19:18.392Z,8.78
2023-04-26T22:22:04.001Z,9.09
2023-04-26T22:24:49.252Z,8.71
2023-04-26T22:27:34.679Z,8.13
2023-04-26T22:30:24.768Z,8.41
2023-04-26T22:33:11.237Z,8.43
2023-04-26T22:35:56.457Z,8.14
2023-04-26T22:38:41.677Z,8.15
2023-04-26T22:41:26.842Z,8.44
2023-04-26T22:44:12.298Z,8.21
2023-04-26T22:46:57.598Z,8.68
2023-04-26T22:49:42.870Z,8.21
2023-04-26T22:52:31.640Z,8.45
2023-04-26T22:55:17.021Z,8.14
2023-04-26T22:58:02.168Z,8.04
2023-04-26T23:00:47.380Z,8.19
2023-04-26T23:03:33.018Z,8.20
2023-04-26T23:06:18.274Z,8.10
2023-04-26T23:09:03.536Z,8.25
2023-04-26T23:11:49.069Z,7.88
2023-04-26T23:14:34.506Z,7.90
2023-04-26T23:17:20.039Z,7.92
2023-04-26T23:20:07.791Z,7.85
2023-04-26T23:22:52.883Z,7.76
2023-04-26T23:25:38.596Z,7.63
2023-04-26T23:28:23.920Z,7.73
2023-04-26T23:31:09.320Z,7.74
2023-04-26T23:33:54.645Z,7.85
2023-04-26T23:36:39.973Z,7.74
2023-04-26T23:39:25.167Z,7.64
2023-04-26T23:42:10.236Z,7.83
2023-04-26T23:44:55.343Z,7.43
2023-04-26T23:47:40.842Z,7.40
2023-04-26T23:50:26.240Z,7.76
2023-04-26T23:53:11.661Z,7.35
2023-04-26T23:55:56.932Z,7.58
2023-04-26T23:58:42.495Z,7.77
